createdAt,value
2018-07-03T00:00:32.790Z,3.77
2018-07-03T00:03:03.370Z,3.17
2018-07-03T00:05:33.950Z,2.70
2018-07-03T00:08:04.561Z,3.77
2018-07-03T00:10:35.085Z,3.17
2018-07-03T00:13:05.713Z,2.70
2018-07-03T00:15:36.291Z,2.90
2018-07-03T00:18:07.038Z,3.10
2018-07-03T00:20:37.668Z,2.90
2018-07-03T00:23:08.239Z,3.13
2018-07-03T00:25:38.798Z,2.80
2018-07-03T00:28:09.384Z,3.00
2018-07-03T00:30:39.966Z,3.40
2018-07-03T00:33:10.549Z,3.07
2018-07-03T00:35:41.121Z,2.50
2018-07-03T00:38:11.700Z,2.90
2018-07-03T00:40:42.260Z,3.00
2018-07-03T00:43:12.880Z,3.53
2018-07-03T00:45:43.484Z,3.50
2018-07-03T00:48:14.067Z,3.20
2018-07-03T00:50:44.632Z,3.77
2018-07-03T00:53:15.425Z,3.53
2018-07-03T00:55:45.994Z,3.17
2018-07-03T00:58:16.589Z,3.27
2018-07-03T01:00:47.172Z,3.30
2018-07-03T01:03:17.758Z,3.10
2018-07-03T01:05:48.290Z,3.50
2018-07-03T01:08:19.035Z,3.30
2018-07-03T01:10:49.574Z,3.30
2018-07-03T01:13:20.196Z,3.37
2018-07-03T01:15:50.812Z,3.13
2018-07-03T01:18:21.362Z,3.30
2018-07-03T01:20:51.980Z,3.13
2018-07-03T01:23:22.594Z,3.23
2018-07-03T01:25:53.136Z,3.00
2018-07-03T01:28:23.701Z,3.07
2018-07-03T01:30:54.306Z,3.13
2018-07-03T01:33:24.965Z,3.20
2018-07-03T01:35:55.565Z,3.50
2018-07-03T01:38:26.118Z,3.33
2018-07-03T01:40:56.685Z,2.97
2018-07-03T01:43:27.237Z,2.63
2018-07-03T01:45:57.836Z,2.90
2018-07-03T01:48:27.980Z,3.23
2018-07-03T01:50:58.461Z,3.27
2018-07-03T01:53:29.086Z,3.30
2018-07-03T01:55:59.682Z,3.33
2018-07-03T01:58:30.249Z,3.20
2018-07-03T02:01:00.823Z,3.20
2018-07-03T02:03:31.442Z,3.37
2018-07-03T02:06:02.856Z,4.00
2018-07-03T02:08:33.419Z,4.00
2018-07-03T02:11:04.010Z,4.00
2018-07-03T02:13:34.649Z,4.33
2018-07-03T02:16:07.249Z,3.93
2018-07-03T02:18:37.809Z,4.37
2018-07-03T02:21:08.392Z,4.10
2018-07-03T02:23:38.969Z,4.07
2018-07-03T02:26:09.561Z,4.27
2018-07-03T02:28:40.142Z,3.93
2018-07-03T02:31:10.774Z,3.60
2018-07-03T02:33:41.328Z,3.60
2018-07-03T02:36:11.949Z,3.70
2018-07-03T02:38:42.490Z,4.27
2018-07-03T02:41:13.086Z,4.27
2018-07-03T02:43:43.622Z,4.10
2018-07-03T02:46:14.210Z,4.00
2018-07-03T02:48:44.753Z,4.20
2018-07-03T02:51:15.356Z,4.07
2018-07-03T02:53:45.888Z,3.90
2018-07-03T02:56:16.475Z,3.70
2018-07-03T02:58:47.036Z,4.10
2018-07-03T03:01:17.658Z,3.70
2018-07-03T03:03:48.201Z,3.47
2018-07-03T03:06:18.829Z,3.73
2018-07-03T03:08:49.455Z,3.57
2018-07-03T03:11:23.325Z,4.07
2018-07-03T03:13:56.345Z,3.87
2018-07-03T03:16:26.965Z,4.00
2018-07-03T03:18:57.557Z,3.50
2018-07-03T03:21:28.167Z,3.70
2018-07-03T03:23:58.710Z,3.83
2018-07-03T03:26:29.323Z,4.10
2018-07-03T03:28:59.945Z,3.70
2018-07-03T03:31:30.568Z,3.90
2018-07-03T03:34:01.101Z,4.50
2018-07-03T03:36:31.709Z,3.53
2018-07-03T03:39:02.291Z,4.30
2018-07-03T03:41:32.505Z,4.07
2018-07-03T03:44:03.045Z,3.30
2018-07-03T03:46:33.630Z,4.10
2018-07-03T03:49:04.232Z,4.57
2018-07-03T03:51:34.796Z,4.37
2018-07-03T03:54:05.464Z,3.70
2018-07-03T03:56:36.072Z,4.30
2018-07-03T03:59:06.677Z,4.80
2018-07-03T04:01:37.322Z,4.60
2018-07-03T04:04:07.878Z,4.77
2018-07-03T04:06:38.521Z,4.70
2018-07-03T04:09:10.990Z,4.20
2018-07-03T04:11:41.617Z,4.83
2018-07-03T04:14:12.189Z,4.50
2018-07-03T04:16:42.788Z,4.40
2018-07-03T04:19:13.328Z,5.17
2018-07-03T04:21:43.946Z,5.37
2018-07-03T04:24:14.830Z,6.60
2018-07-03T04:26:45.407Z,5.53
2018-07-03T04:29:16.063Z,4.30
2018-07-03T04:31:46.643Z,3.90
2018-07-03T04:34:17.265Z,3.97
2018-07-03T04:36:47.864Z,4.20
2018-07-03T04:39:18.453Z,4.83
2018-07-03T04:41:48.644Z,5.33
2018-07-03T04:44:19.164Z,5.10
2018-07-03T04:46:49.951Z,4.40
2018-07-03T04:49:20.574Z,4.80
2018-07-03T04:51:51.225Z,4.50
2018-07-03T04:54:21.734Z,5.03
2018-07-03T04:56:52.330Z,5.23
2018-07-03T04:59:22.905Z,5.10
2018-07-03T05:01:53.562Z,5.03
2018-07-03T05:04:24.153Z,4.57
2018-07-03T05:06:54.743Z,5.07
2018-07-03T05:09:25.285Z,5.50
2018-07-03T05:11:55.852Z,4.60
2018-07-03T05:14:26.442Z,5.30
2018-07-03T05:16:58.362Z,4.53
2018-07-03T05:19:30.854Z,4.50
2018-07-03T05:22:01.426Z,4.80
2018-07-03T05:24:32.049Z,4.00
2018-07-03T05:27:02.659Z,5.30
2018-07-03T05:29:33.264Z,5.27
2018-07-03T05:32:03.893Z,4.80
2018-07-03T05:34:34.506Z,4.83
2018-07-03T05:37:05.093Z,5.00
2018-07-03T05:39:35.654Z,6.83
2018-07-03T05:42:06.244Z,5.57
2018-07-03T05:44:36.854Z,4.77
2018-07-03T05:47:07.470Z,4.97
2018-07-03T05:49:38.090Z,4.77
2018-07-03T05:52:08.693Z,4.30
2018-07-03T05:54:39.269Z,6.30
2018-07-03T05:57:09.844Z,5.10
2018-07-03T05:59:40.411Z,6.70
2018-07-03T06:02:10.995Z,4.80
2018-07-03T06:04:41.718Z,5.07
2018-07-03T06:07:12.213Z,4.70
2018-07-03T06:09:42.796Z,5.80
2018-07-03T06:12:13.370Z,5.70
2018-07-03T06:14:43.962Z,5.70
2018-07-03T06:17:14.588Z,4.87
2018-07-03T06:19:45.138Z,12.30
2018-07-03T06:22:15.733Z,29.33
2018-07-03T06:24:46.279Z,12.77
2018-07-03T06:27:16.932Z,6.90
2018-07-03T06:29:47.566Z,4.40
2018-07-03T06:32:18.198Z,4.77
2018-07-03T06:34:48.798Z,4.77
2018-07-03T06:37:19.384Z,4.47
2018-07-03T06:39:50.037Z,4.63
2018-07-03T06:42:20.630Z,3.90
2018-07-03T06:44:51.267Z,3.90
2018-07-03T06:47:21.894Z,4.30
2018-07-03T06:49:52.514Z,4.40
2018-07-03T06:52:23.101Z,4.60
2018-07-03T06:54:53.701Z,4.20
2018-07-03T06:57:24.297Z,4.17
2018-07-03T06:59:54.914Z,4.40
2018-07-03T07:02:25.458Z,4.10
2018-07-03T07:04:56.063Z,4.80
2018-07-03T07:07:26.658Z,4.77
2018-07-03T07:09:57.230Z,4.30
2018-07-03T07:12:27.847Z,4.10
2018-07-03T07:14:58.480Z,4.20
2018-07-03T07:17:29.155Z,4.40
2018-07-03T07:19:59.748Z,4.30
2018-07-03T07:22:30.374Z,4.40
2018-07-03T07:25:00.995Z,3.97
2018-07-03T07:27:31.619Z,4.43
2018-07-03T07:30:02.200Z,3.97
2018-07-03T07:32:32.762Z,4.00
2018-07-03T07:35:03.298Z,4.37
2018-07-03T07:37:33.925Z,4.20
2018-07-03T07:40:04.507Z,4.40
2018-07-03T07:42:35.077Z,3.90
2018-07-03T07:45:06.437Z,4.03
2018-07-03T07:47:37.630Z,4.40
2018-07-03T07:50:08.225Z,4.23
2018-07-03T07:52:38.826Z,3.90
2018-07-03T07:55:09.415Z,3.93
2018-07-03T07:57:40.075Z,3.73
2018-07-03T08:00:10.612Z,3.90
2018-07-03T08:02:41.189Z,3.80
2018-07-03T08:05:11.793Z,2.80
2018-07-03T08:07:42.297Z,3.00
2018-07-03T08:10:12.937Z,2.50
2018-07-03T08:12:43.573Z,3.20
2018-07-03T08:15:14.190Z,3.17
2018-07-03T08:17:44.851Z,3.27
2018-07-03T08:20:15.461Z,2.60
2018-07-03T08:22:45.990Z,2.37
2018-07-03T08:25:16.621Z,2.67
2018-07-03T08:27:47.198Z,2.30
2018-07-03T08:30:17.802Z,2.10
2018-07-03T08:32:48.410Z,2.80
2018-07-03T08:35:18.966Z,2.30
2018-07-03T08:37:49.666Z,1.60
2018-07-03T08:40:20.265Z,1.60
2018-07-03T08:42:50.917Z,1.67
2018-07-03T08:45:21.576Z,1.80
2018-07-03T08:47:52.156Z,1.53
2018-07-03T08:50:22.731Z,1.70
2018-07-03T08:52:53.361Z,1.60
2018-07-03T08:55:23.937Z,1.57
2018-07-03T08:57:54.525Z,1.77
2018-07-03T09:00:25.287Z,1.60
2018-07-03T09:02:55.846Z,1.83
2018-07-03T09:05:26.533Z,1.50
2018-07-03T09:07:57.202Z,1.70
2018-07-03T09:10:27.831Z,1.87
2018-07-03T09:12:58.427Z,1.70
2018-07-03T09:15:29.049Z,1.80
2018-07-03T09:17:59.743Z,1.53
2018-07-03T09:20:30.339Z,1.60
2018-07-03T09:23:00.917Z,1.70
2018-07-03T09:25:31.154Z,1.77
2018-07-03T09:28:01.625Z,1.80
2018-07-03T09:30:32.399Z,1.60
2018-07-03T09:33:02.986Z,1.90
2018-07-03T09:35:33.702Z,1.53
2018-07-03T09:38:04.393Z,1.80
2018-07-03T09:40:35.003Z,2.10
2018-07-03T09:43:05.892Z,2.00
2018-07-03T09:45:36.485Z,1.80
2018-07-03T09:48:07.368Z,1.70
2018-07-03T09:50:38.002Z,1.80
2018-07-03T09:53:08.595Z,1.70
2018-07-03T09:55:39.230Z,2.47
2018-07-03T09:58:09.790Z,1.90
2018-07-03T10:00:45.473Z,1.80
2018-07-03T10:03:16.107Z,1.50
2018-07-03T10:05:46.677Z,1.80
2018-07-03T10:08:17.275Z,1.83
2018-07-03T10:10:47.869Z,1.67
2018-07-03T10:13:18.478Z,2.03
2018-07-03T10:15:49.077Z,1.87
2018-07-03T10:18:19.670Z,2.10
2018-07-03T10:20:50.281Z,1.80
2018-07-03T10:23:20.819Z,2.00
2018-07-03T10:25:51.393Z,1.80
2018-07-03T10:28:21.967Z,2.10
2018-07-03T10:30:52.594Z,2.23
2018-07-03T10:33:23.274Z,1.90
2018-07-03T10:35:53.827Z,2.20
2018-07-03T10:38:24.437Z,2.00
2018-07-03T10:40:54.982Z,1.97
2018-07-03T10:43:25.553Z,2.10
2018-07-03T10:45:56.149Z,1.80
2018-07-03T10:48:26.768Z,1.80
2018-07-03T10:50:57.372Z,2.07
2018-07-03T10:53:28.004Z,2.07
2018-07-03T10:55:58.548Z,2.00
2018-07-03T10:58:29.207Z,2.00
2018-07-03T11:00:59.793Z,2.00
2018-07-03T11:03:30.428Z,2.10
2018-07-03T11:06:01.230Z,1.53
2018-07-03T11:08:31.804Z,1.87
2018-07-03T11:11:02.362Z,2.03
2018-07-03T11:13:32.948Z,1.97
2018-07-03T11:16:03.485Z,2.13
2018-07-03T11:18:34.045Z,2.17
2018-07-03T11:21:04.693Z,2.00
2018-07-03T11:23:35.278Z,1.97
2018-07-03T11:26:06.021Z,2.00
2018-07-03T11:28:36.586Z,2.23
2018-07-03T11:31:07.265Z,2.13
2018-07-03T11:33:37.871Z,2.40
2018-07-03T11:36:08.529Z,1.77
2018-07-03T11:38:39.432Z,2.03
2018-07-03T11:41:10.060Z,1.83
2018-07-03T11:43:40.666Z,1.93
2018-07-03T11:46:10.953Z,1.80
2018-07-03T11:48:41.597Z,1.97
2018-07-03T11:51:12.238Z,2.17
2018-07-03T11:53:42.512Z,2.03
2018-07-03T11:56:13.025Z,2.00
2018-07-03T11:58:43.667Z,2.10
2018-07-03T12:01:14.316Z,2.13
2018-07-03T12:03:44.961Z,2.50
2018-07-03T12:06:15.574Z,2.23
2018-07-03T12:08:46.184Z,2.00
2018-07-03T12:11:16.896Z,2.13
2018-07-03T12:13:47.416Z,2.57
2018-07-03T12:16:17.740Z,1.60
2018-07-03T12:18:53.294Z,1.97
2018-07-03T12:21:24.011Z,2.07
2018-07-03T12:23:54.785Z,2.30
2018-07-03T12:26:25.386Z,2.00
2018-07-03T12:28:56.156Z,2.40
2018-07-03T12:31:26.808Z,2.47
2018-07-03T12:33:57.407Z,2.30
2018-07-03T12:36:28.313Z,2.07
2018-07-03T12:38:58.528Z,2.47
2018-07-03T12:41:29.145Z,2.50
2018-07-03T12:43:59.761Z,2.47
2018-07-03T12:46:30.365Z,1.90
2018-07-03T12:49:00.906Z,1.77
2018-07-03T12:51:31.631Z,2.20
2018-07-03T12:54:02.289Z,2.00
2018-07-03T12:56:32.925Z,2.00
2018-07-03T12:59:03.568Z,2.03
2018-07-03T13:01:34.218Z,2.00
2018-07-03T13:04:04.861Z,1.80
2018-07-03T13:06:35.682Z,1.90
2018-07-03T13:09:10.397Z,2.60
2018-07-03T13:11:41.146Z,2.27
2018-07-03T13:14:11.819Z,2.33
2018-07-03T13:16:42.433Z,2.10
2018-07-03T13:19:13.046Z,2.13
2018-07-03T13:21:43.627Z,1.90
2018-07-03T13:24:14.285Z,2.13
2018-07-03T13:26:44.939Z,1.80
2018-07-03T13:29:15.550Z,2.10
2018-07-03T13:31:46.189Z,2.10
2018-07-03T13:34:16.781Z,2.20
2018-07-03T13:36:47.851Z,1.60
2018-07-03T13:39:18.475Z,2.07
2018-07-03T13:41:49.088Z,1.87
2018-07-03T13:44:19.668Z,1.80
2018-07-03T13:46:50.222Z,4.90
2018-07-03T13:49:20.726Z,2.03
2018-07-03T13:51:51.071Z,1.83
2018-07-03T13:54:21.583Z,2.20
2018-07-03T13:56:52.245Z,2.33
2018-07-03T13:59:22.826Z,2.50
2018-07-03T14:01:53.446Z,2.00
2018-07-03T14:04:23.985Z,1.97
2018-07-03T14:06:54.728Z,2.20
2018-07-03T14:09:25.306Z,2.23
2018-07-03T14:11:55.906Z,2.17
2018-07-03T14:14:26.593Z,1.90
2018-07-03T14:16:57.167Z,2.00
2018-07-03T14:19:27.720Z,2.23
2018-07-03T14:21:58.471Z,2.30
2018-07-03T14:24:28.992Z,2.13
2018-07-03T14:26:59.669Z,2.10
2018-07-03T14:29:30.345Z,2.17
2018-07-03T14:32:00.984Z,2.10
2018-07-03T14:34:31.522Z,2.40
2018-07-03T14:37:02.370Z,2.20
2018-07-03T14:39:32.969Z,5.50
2018-07-03T14:42:03.570Z,3.03
2018-07-03T14:44:34.172Z,3.90
2018-07-03T14:47:04.882Z,2.17
2018-07-03T14:49:35.470Z,3.77
2018-07-03T14:52:06.608Z,5.13
2018-07-03T14:54:37.213Z,6.03
2018-07-03T14:57:07.801Z,3.23
2018-07-03T14:59:38.370Z,2.27
2018-07-03T15:02:09.312Z,2.50
2018-07-03T15:04:39.581Z,2.27
2018-07-03T15:07:10.330Z,2.07
2018-07-03T15:09:40.952Z,2.23
2018-07-03T15:12:11.586Z,2.80
2018-07-03T15:14:42.344Z,1.90
2018-07-03T15:17:13.014Z,2.50
2018-07-03T15:19:48.585Z,8.97
2018-07-03T15:22:19.346Z,5.40
2018-07-03T15:24:49.998Z,2.60
2018-07-03T15:27:20.594Z,3.40
2018-07-03T15:29:51.175Z,5.07
2018-07-03T15:32:21.793Z,2.53
2018-07-03T15:34:52.424Z,2.80
2018-07-03T15:37:23.426Z,2.60
2018-07-03T15:39:54.016Z,2.17
2018-07-03T15:42:24.654Z,2.50
2018-07-03T15:45:12.513Z,2.40
2018-07-03T15:47:43.115Z,2.27
2018-07-03T15:50:14.072Z,2.70
2018-07-03T15:52:44.592Z,2.47
2018-07-03T15:55:15.145Z,2.57
2018-07-03T15:57:45.716Z,2.20
2018-07-03T16:00:16.701Z,2.47
2018-07-03T16:05:07.977Z,2.17
2018-07-03T16:09:49.832Z,3.70
2018-07-03T16:12:20.549Z,2.43
2018-07-03T16:14:51.064Z,2.57
2018-07-03T16:17:21.646Z,2.10
2018-07-03T16:19:57.346Z,2.40
2018-07-03T16:22:28.008Z,2.40
2018-07-03T16:24:58.673Z,2.30
2018-07-03T16:27:29.333Z,2.50
2018-07-03T16:29:59.876Z,2.13
2018-07-03T16:32:30.524Z,2.13
2018-07-03T16:35:01.132Z,2.10
2018-07-03T16:37:31.963Z,2.37
2018-07-03T16:40:02.603Z,2.47
2018-07-03T16:42:33.235Z,2.30
2018-07-03T16:45:03.823Z,2.63
2018-07-03T16:47:34.418Z,2.73
2018-07-03T16:50:05.147Z,2.10
2018-07-03T16:52:35.768Z,2.37
2018-07-03T16:55:06.472Z,2.20
2018-07-03T16:57:37.220Z,2.50
2018-07-03T17:00:07.861Z,2.70
2018-07-03T17:02:38.460Z,2.30
2018-07-03T17:05:09.014Z,2.70
2018-07-03T17:07:40.281Z,2.40
2018-07-03T17:10:10.829Z,1.90
2018-07-03T17:12:41.412Z,2.30
2018-07-03T17:15:12.004Z,2.47
2018-07-03T17:17:42.682Z,3.00
2018-07-03T17:20:13.321Z,2.80
2018-07-03T17:22:43.582Z,2.60
2018-07-03T17:25:14.081Z,2.30
2018-07-03T17:27:44.285Z,2.40
2018-07-03T17:30:14.751Z,2.23
2018-07-03T17:32:45.482Z,2.80
2018-07-03T17:35:16.080Z,2.70
2018-07-03T17:37:46.998Z,2.50
2018-07-03T17:40:34.306Z,2.77
2018-07-03T17:43:36.463Z,2.90
2018-07-03T17:46:08.862Z,3.63
2018-07-03T17:48:39.419Z,3.20
2018-07-03T17:51:10.030Z,3.33
2018-07-03T17:53:40.946Z,3.03
2018-07-03T17:56:11.517Z,3.40
2018-07-03T17:58:42.138Z,2.97
2018-07-03T18:01:12.735Z,4.47
2018-07-03T18:03:43.348Z,4.40
2018-07-03T18:06:13.997Z,3.87
2018-07-03T18:08:44.626Z,4.13
2018-07-03T18:11:15.295Z,4.27
2018-07-03T18:13:45.799Z,5.53
2018-07-03T18:16:16.441Z,5.10
2018-07-03T18:18:51.281Z,8.43
2018-07-03T18:21:21.709Z,6.97
2018-07-03T18:23:52.327Z,5.30
2018-07-03T18:26:22.994Z,5.30
2018-07-03T18:28:53.769Z,7.37
2018-07-03T18:31:24.338Z,19.73
2018-07-03T18:33:55.023Z,18.47
2018-07-03T18:36:25.556Z,8.80
2018-07-03T18:38:56.774Z,5.80
2018-07-03T18:41:27.366Z,5.70
2018-07-03T18:43:58.262Z,6.00
2018-07-03T18:46:28.844Z,6.03
2018-07-03T18:48:59.461Z,6.17
2018-07-03T18:51:30.109Z,6.80
2018-07-03T18:54:00.761Z,5.23
2018-07-03T18:56:31.358Z,5.77
2018-07-03T18:59:01.938Z,5.83
2018-07-03T19:01:32.501Z,5.43
2018-07-03T19:04:03.121Z,4.90
2018-07-03T19:06:33.669Z,4.70
2018-07-03T19:09:04.696Z,5.10
2018-07-03T19:11:35.486Z,4.77
2018-07-03T19:14:06.229Z,4.20
2018-07-03T19:16:36.786Z,4.43
2018-07-03T19:19:07.475Z,4.67
2018-07-03T19:21:38.049Z,3.67
2018-07-03T19:24:08.787Z,3.80
2018-07-03T19:26:39.434Z,3.73
2018-07-03T19:29:09.949Z,4.03
2018-07-03T19:31:40.546Z,3.70
2018-07-03T19:34:11.133Z,4.27
2018-07-03T19:36:41.690Z,3.97
2018-07-03T19:39:13.925Z,4.40
2018-07-03T19:41:44.527Z,5.13
2018-07-03T19:44:15.109Z,5.03
2018-07-03T19:46:45.971Z,4.20
2018-07-03T19:49:16.585Z,4.57
2018-07-03T19:51:47.159Z,4.23
2018-07-03T19:54:17.821Z,4.07
2018-07-03T19:56:48.404Z,4.53
2018-07-03T19:59:19.086Z,4.37
2018-07-03T20:01:49.638Z,5.00
2018-07-03T20:04:20.209Z,3.70
2018-07-03T20:06:50.805Z,4.10
2018-07-03T20:09:21.410Z,4.50
2018-07-03T20:11:51.970Z,4.60
2018-07-03T20:14:22.553Z,4.53
2018-07-03T20:16:53.133Z,4.03
2018-07-03T20:19:23.737Z,4.07
2018-07-03T20:21:54.348Z,4.47
2018-07-03T20:24:25.026Z,4.40
2018-07-03T20:26:55.534Z,4.20
2018-07-03T20:29:26.167Z,4.73
2018-07-03T20:31:56.738Z,3.77
2018-07-03T20:34:27.339Z,3.90
2018-07-03T20:36:57.923Z,4.30
2018-07-03T20:39:28.887Z,4.20
2018-07-03T20:41:59.441Z,4.00
2018-07-03T20:44:29.968Z,4.20
2018-07-03T20:47:00.537Z,4.00
2018-07-03T20:49:31.110Z,3.43
2018-07-03T20:52:01.640Z,3.90
2018-07-03T20:54:32.330Z,3.77
2018-07-03T20:57:02.912Z,3.27
2018-07-03T20:59:33.491Z,3.57
2018-07-03T21:02:04.127Z,3.57
2018-07-03T21:04:34.753Z,3.90
2018-07-03T21:07:05.297Z,3.93
2018-07-03T21:09:35.969Z,3.57
2018-07-03T21:12:06.561Z,3.40
2018-07-03T21:14:37.175Z,3.70
2018-07-03T21:17:07.724Z,3.60
2018-07-03T21:19:38.289Z,3.60
2018-07-03T21:22:08.876Z,3.70
2018-07-03T21:24:39.720Z,3.60
2018-07-03T21:27:10.614Z,3.87
2018-07-03T21:29:41.295Z,3.53
2018-07-03T21:32:11.864Z,3.50
2018-07-03T21:34:42.402Z,3.70
2018-07-03T21:37:12.954Z,3.60
2018-07-03T21:39:43.754Z,3.60
2018-07-03T21:42:14.304Z,3.87
2018-07-03T21:44:44.885Z,3.50
2018-07-03T21:47:15.509Z,3.40
2018-07-03T21:49:46.098Z,3.30
2018-07-03T21:52:16.668Z,3.50
2018-07-03T21:54:47.322Z,3.70
2018-07-03T21:57:17.835Z,3.80
2018-07-03T21:59:48.449Z,3.53
2018-07-03T22:02:18.996Z,3.60
2018-07-03T22:04:49.612Z,3.67
2018-07-03T22:07:20.185Z,3.87
2018-07-03T22:09:50.878Z,4.03
2018-07-03T22:12:21.454Z,4.10
2018-07-03T22:14:52.013Z,3.80
2018-07-03T22:17:23.123Z,3.77
2018-07-03T22:19:53.669Z,3.53
2018-07-03T22:22:24.194Z,3.73
2018-07-03T22:24:54.861Z,3.53
2018-07-03T22:27:25.395Z,3.60
2018-07-03T22:29:55.974Z,3.63
2018-07-03T22:32:26.534Z,3.70
2018-07-03T22:34:57.065Z,3.93
2018-07-03T22:37:27.597Z,3.70
2018-07-03T22:39:58.493Z,3.93
2018-07-03T22:42:29.057Z,3.20
2018-07-03T22:44:59.670Z,3.43
2018-07-03T22:47:30.218Z,3.60
2018-07-03T22:50:00.781Z,3.63
2018-07-03T22:52:31.312Z,3.93
2018-07-03T22:55:01.982Z,3.80
2018-07-03T22:57:32.761Z,2.93
2018-07-03T23:00:03.378Z,3.10
2018-07-03T23:02:34.005Z,3.43
2018-07-03T23:05:04.610Z,3.50
2018-07-03T23:07:35.182Z,3.80
2018-07-03T23:10:05.805Z,3.53
2018-07-03T23:12:36.365Z,3.40
2018-07-03T23:15:06.999Z,3.10
2018-07-03T23:17:37.534Z,3.30
2018-07-03T23:20:08.094Z,3.53
2018-07-03T23:22:38.692Z,3.17
2018-07-03T23:25:09.374Z,3.70
2018-07-03T23:27:39.916Z,3.47
2018-07-03T23:30:10.511Z,3.47
2018-07-03T23:32:41.049Z,3.37
2018-07-03T23:35:11.607Z,3.73
2018-07-03T23:37:42.171Z,3.40
2018-07-03T23:40:13.050Z,3.90
2018-07-03T23:42:43.605Z,3.57
2018-07-03T23:45:14.185Z,3.70
2018-07-03T23:48:01.486Z,3.73
2018-07-03T23:50:48.695Z,3.90
2018-07-03T23:53:35.974Z,3.47
2018-07-03T23:56:23.344Z,3.80
2018-07-03T23:59:10.735Z,3.60
